Time;durP1;ratioP1;P1;durP2;ratioP2;P2;SDS_P1;SDS_P2;PMS_P1;PMS_P2;Temp;Humidity;BMP_temperature;BMP_pressure;BME280_temperature;BME280_humidity;BME280_pressure;Samples;Min_cycle;Max_cycle;Signal;HPM_P1;HPM_P2
2023/09/18 05:36:10;;;;;;;;;3.67;2.00;;;;;23.58;61.15;100357.38;5114712;27;45602;-78
2023/09/18 05:38:35;;;;;;;;;1.67;1.67;;;;;23.75;61.18;100349.97;5117609;27;45516;-87
2023/09/18 05:41:00;;;;;;;;;2.67;2.00;;;;;23.95;60.67;100355.78;5097280;27;45700;-82
2023/09/18 05:43:26;;;;;;;;;2.33;2.33;;;;;24.17;60.73;100364.13;5098727;27;45657;-83
2023/09/18 05:45:52;;;;;;;;;4.33;2.33;;;;;24.41;60.54;100355.94;5098604;27;46083;-77
2023/09/18 05:48:17;;;;;;;;;4.67;2.00;;;;;24.64;60.08;100361.31;5097570;27;45404;-87
2023/09/18 05:50:43;;;;;;;;;3.33;2.00;;;;;24.86;59.22;100350.59;5100651;27;45483;-86
2023/09/18 05:53:08;;;;;;;;;2.33;2.33;;;;;25.09;58.72;100349.69;5105113;27;54980;-86
2023/09/18 05:55:34;;;;;;;;;5.00;3.33;;;;;25.30;58.64;100357.00;5104543;27;45635;-90
2023/09/18 05:58:00;;;;;;;;;2.00;2.00;;;;;25.50;58.12;100357.25;5105961;27;45512;-84
2023/09/18 06:00:26;;;;;;;;;3.33;2.33;;;;;25.71;57.80;100352.91;5101359;27;45678;-88
2023/09/18 06:02:52;;;;;;;;;2.67;2.67;;;;;25.90;56.72;100361.47;5089558;27;45703;-85
2023/09/18 06:05:21;;;;;;;;;2.00;2.00;;;;;26.08;56.17;100365.63;5099129;27;45475;-87
2023/09/18 06:07:46;;;;;;;;;2.33;1.67;;;;;26.23;55.79;100371.00;5099991;27;45517;-89
2023/09/18 06:10:11;;;;;;;;;3.33;3.33;;;;;26.38;55.83;100384.53;5100512;27;45681;-89
2023/09/18 06:12:39;;;;;;;;;4.00;2.00;;;;;26.49;55.90;100385.88;5095570;27;45520;-85
2023/09/18 06:15:09;;;;;;;;;2.67;1.67;;;;;26.60;55.73;100387.22;5096597;27;46519;-86
2023/09/18 06:17:36;;;;;;;;;2.33;2.33;;;;;26.68;55.44;100385.19;5109273;27;45602;-84
2023/09/18 06:20:02;;;;;;;;;3.00;2.00;;;;;26.75;54.99;100387.97;5107692;27;45409;-85
2023/09/18 06:22:27;;;;;;;;;5.67;3.00;;;;;26.81;53.79;100389.06;5104398;27;45738;-84
2023/09/18 06:24:52;;;;;;;;;4.00;3.00;;;;;26.89;54.32;100399.78;5107440;27;45723;-85
2023/09/18 06:27:18;;;;;;;;;4.00;3.00;;;;;26.95;54.11;100406.34;5108795;27;49486;-86
2023/09/18 06:29:44;;;;;;;;;4.00;2.67;;;;;27.03;54.05;100408.06;5103498;27;45448;-86
2023/09/18 06:32:09;;;;;;;;;3.33;2.00;;;;;27.08;53.94;100402.84;5101683;27;45553;-84
2023/09/18 06:34:34;;;;;;;;;2.33;2.33;;;;;27.13;53.62;100405.81;5104649;27;56755;-85
2023/09/18 06:37:00;;;;;;;;;3.33;2.67;;;;;27.17;52.93;100398.91;5101248;27;45625;-86
2023/09/18 06:39:26;;;;;;;;;5.00;4.67;;;;;27.18;52.44;100408.75;5102757;27;45857;-88
2023/09/18 06:41:51;;;;;;;;;4.00;4.00;;;;;27.19;52.38;100428.69;5099001;27;45390;-78
2023/09/18 06:44:17;;;;;;;;;5.67;4.00;;;;;27.12;52.01;100423.19;5101289;27;45733;-75
2023/09/18 06:46:42;;;;;;;;;4.67;4.00;;;;;27.03;51.74;100414.34;5099348;27;45778;-78
2023/09/18 06:49:07;;;;;;;;;6.67;5.33;;;;;26.98;52.01;100400.50;5084797;27;46163;-77
2023/09/18 06:51:32;;;;;;;;;4.00;4.00;;;;;26.93;52.18;100402.97;5093965;27;47936;-77
2023/09/18 06:53:58;;;;;;;;;4.67;4.67;;;;;26.88;52.19;100402.69;5092353;27;45530;-79
2023/09/18 06:56:24;;;;;;;;;5.00;4.33;;;;;26.84;51.54;100397.66;5091617;27;45866;-80
2023/09/18 06:58:51;;;;;;;;;5.00;5.00;;;;;26.83;51.49;100404.16;5084386;27;45567;-81
2023/09/18 07:01:20;;;;;;;;;6.00;6.00;;;;;26.81;51.35;100410.84;5092150;27;45544;-80
2023/09/18 07:03:50;;;;;;;;;5.00;3.67;;;;;26.79;52.13;100411.03;5088956;27;46393;-81
2023/09/18 07:06:21;;;;;;;;;4.00;4.00;;;;;26.80;51.44;100409.13;5091595;27;45512;-81
2023/09/18 07:08:49;;;;;;;;;4.33;4.33;;;;;26.77;51.76;100415.81;5089982;27;45633;-81
2023/09/18 07:11:14;;;;;;;;;6.33;6.33;;;;;26.79;51.72;100418.34;5078190;27;45529;-81
2023/09/18 07:13:40;;;;;;;;;6.33;5.00;;;;;26.78;51.54;100414.78;5092737;27;47275;-82
2023/09/18 07:16:06;;;;;;;;;5.00;5.00;;;;;26.82;51.73;100417.97;5088663;27;45421;-83
2023/09/18 07:18:31;;;;;;;;;6.00;6.00;;;;;26.81;51.65;100424.44;5082200;27;45682;-78
2023/09/18 07:20:56;;;;;;;;;6.33;6.33;;;;;26.80;50.95;100433.63;5079521;27;45623;-78
2023/09/18 07:23:22;;;;;;;;;5.00;5.00;;;;;26.80;50.89;100429.03;5078048;27;46430;-78
2023/09/18 07:25:48;;;;;;;;;3.33;3.33;;;;;26.78;51.39;100433.84;5083890;27;45453;-78
2023/09/18 07:28:17;;;;;;;;;6.00;5.67;;;;;26.79;51.05;100440.97;5092498;27;45672;-79
2023/09/18 07:30:43;;;;;;;;;6.00;6.00;;;;;26.80;51.40;100449.97;5080322;27;45452;-79
2023/09/18 07:33:09;;;;;;;;;6.00;6.00;;;;;26.78;51.18;100450.19;5076300;27;47044;-78
2023/09/18 07:35:34;;;;;;;;;8.33;6.33;;;;;26.77;51.13;100445.75;5078346;27;45578;-78
2023/09/18 07:38:00;;;;;;;;;6.67;6.67;;;;;26.77;51.19;100439.50;5079448;27;45410;-78
2023/09/18 07:40:25;;;;;;;;;7.00;7.00;;;;;26.75;51.48;100447.84;5084664;27;45482;-80
2023/09/18 07:42:50;;;;;;;;;7.00;7.00;;;;;26.77;51.15;100443.03;5088977;27;46132;-80
2023/09/18 07:45:17;;;;;;;;;5.00;5.00;;;;;26.80;50.79;100447.25;5086612;27;45642;-80
2023/09/18 07:47:43;;;;;;;;;5.67;5.67;;;;;26.83;51.12;100452.31;5088185;27;45381;-79
2023/09/18 07:50:08;;;;;;;;;5.00;5.00;;;;;26.83;51.04;100444.13;5092376;27;45587;-78
2023/09/18 07:52:33;;;;;;;;;6.00;5.67;;;;;26.82;50.43;100447.91;5094352;27;46083;-78
2023/09/18 07:54:59;;;;;;;;;6.33;6.33;;;;;26.83;50.87;100450.44;5081415;27;45520;-78
2023/09/18 07:57:27;;;;;;;;;5.00;5.00;;;;;26.84;50.73;100457.56;5078124;27;45902;-78
2023/09/18 07:59:53;;;;;;;;;5.00;5.00;;;;;26.84;50.47;100456.69;5092350;27;45821;-77
2023/09/18 08:02:18;;;;;;;;;8.00;6.33;;;;;26.82;51.30;100458.78;5080586;27;45423;-77
2023/09/18 08:04:44;;;;;;;;;6.33;6.33;;;;;26.80;50.74;100453.53;5091755;27;45500;-77
2023/09/18 08:07:10;;;;;;;;;5.33;5.33;;;;;26.79;50.61;100454.59;5071049;27;45744;-76
2023/09/18 08:09:36;;;;;;;;;7.33;6.33;;;;;26.81;51.28;100449.78;5076552;27;45707;-76
2023/09/18 08:12:03;;;;;;;;;6.00;6.00;;;;;26.81;50.39;100444.31;5086526;27;45486;-79
2023/09/18 08:14:28;;;;;;;;;4.67;4.67;;;;;26.84;50.58;100440.38;5091564;27;45405;-77
2023/09/18 08:16:59;;;;;;;;;5.00;5.00;;;;;26.85;50.40;100436.59;5090401;27;45853;-83
2023/09/18 08:19:28;;;;;;;;;7.00;7.00;;;;;26.89;50.32;100446.06;5089756;27;45566;-79
2023/09/18 08:21:55;;;;;;;;;4.00;4.00;;;;;26.90;50.74;100455.09;5084164;27;46069;-82
2023/09/18 08:24:22;;;;;;;;;5.33;5.33;;;;;26.91;50.78;100438.53;5078775;27;45562;-76
2023/09/18 08:26:48;;;;;;;;;6.33;5.00;;;;;26.95;49.90;100448.03;5093015;27;45553;-75
2023/09/18 08:29:13;;;;;;;;;6.67;5.00;;;;;27.00;49.77;100441.13;5079938;27;45516;-75
2023/09/18 08:31:39;;;;;;;;;8.67;7.00;;;;;27.02;49.89;100445.34;5084737;27;49882;-76
2023/09/18 08:34:04;;;;;;;;;8.67;5.33;;;;;27.05;50.11;100457.75;5079364;27;45822;-79
2023/09/18 08:36:30;;;;;;;;;5.33;5.33;;;;;27.09;49.67;100468.03;5091130;27;45698;-79
2023/09/18 08:38:56;;;;;;;;;7.00;6.67;;;;;27.13;50.30;100468.47;5091947;27;45531;-79
2023/09/18 08:41:26;;;;;;;;;6.00;6.00;;;;;27.19;49.83;100461.38;5090264;27;45497;-80
2023/09/18 08:43:56;;;;;;;;;7.00;6.67;;;;;27.24;49.63;100458.88;5074920;27;45417;-78
2023/09/18 08:46:22;;;;;;;;;5.00;5.00;;;;;27.27;49.63;100465.81;5086222;27;45705;-78
2023/09/18 08:48:49;;;;;;;;;5.00;5.00;;;;;27.28;49.07;100472.94;5088046;27;45883;-80
2023/09/18 08:51:18;;;;;;;;;7.00;7.00;;;;;27.35;48.83;100473.84;5087930;27;45426;-80
2023/09/18 08:53:43;;;;;;;;;5.33;5.33;;;;;27.37;49.06;100469.00;5079474;27;45335;-81
2023/09/18 08:56:09;;;;;;;;;6.00;6.00;;;;;27.40;49.57;100456.88;5076145;27;45592;-81
2023/09/18 08:58:39;;;;;;;;;4.00;4.00;;;;;27.41;48.98;100467.56;5083505;27;45478;-74
2023/09/18 09:01:09;;;;;;;;;4.00;4.00;;;;;27.45;49.16;100465.28;5089503;27;46939;-74
2023/09/18 09:03:35;;;;;;;;;6.00;5.00;;;;;27.46;48.79;100456.91;5071400;27;46711;-74
2023/09/18 09:06:01;;;;;;;;;6.00;4.33;;;;;27.48;48.71;100453.97;5070488;27;45886;-77
2023/09/18 09:08:29;;;;;;;;;5.00;5.00;;;;;27.46;48.81;100450.63;5069420;27;45541;-78
2023/09/18 09:10:57;;;;;;;;;7.00;7.00;;;;;27.48;48.43;100441.22;5077568;27;46165;-77
2023/09/18 09:13:26;;;;;;;;;5.33;5.33;;;;;27.49;49.08;100451.06;5076234;27;45886;-77
2023/09/18 09:15:54;;;;;;;;;7.00;7.00;;;;;27.51;48.27;100439.13;5077175;27;45800;-76
2023/09/18 09:18:19;;;;;;;;;5.33;5.33;;;;;27.51;48.35;100444.56;5085961;27;45417;-76
2023/09/18 09:20:57;;;;;;;;;6.00;6.00;;;;;27.51;48.45;100442.69;5075148;27;45587;-80
2023/09/18 09:23:23;;;;;;;;;6.33;6.00;;;;;27.53;48.70;100445.19;5078502;27;45511;-80
2023/09/18 09:25:48;;;;;;;;;8.00;8.00;;;;;27.56;48.90;100448.38;5088643;27;46131;-81
2023/09/18 09:28:14;;;;;;;;;4.33;4.33;;;;;27.59;48.58;100445.22;5080509;27;45486;-80
2023/09/18 09:30:39;;;;;;;;;5.00;5.00;;;;;27.64;48.00;100446.53;5077683;27;46088;-79
2023/09/18 09:33:05;;;;;;;;;5.00;5.00;;;;;27.68;47.93;100447.81;5086010;27;45508;-79
2023/09/18 09:35:33;;;;;;;;;4.33;4.33;;;;;27.71;48.33;100444.69;5078840;27;45812;-79
2023/09/18 09:38:12;;;;;;;;;6.33;5.00;;;;;27.72;47.72;100449.91;5078273;27;45690;-80
2023/09/18 09:40:40;;;;;;;;;4.33;4.33;;;;;27.75;48.14;100451.41;5085127;27;47230;-80
2023/09/18 09:43:08;;;;;;;;;5.00;5.00;;;;;27.78;48.05;100453.72;5079133;27;47101;-76
2023/09/18 09:45:36;;;;;;;;;8.00;7.33;;;;;27.77;47.86;100462.09;5077606;27;45461;-75
2023/09/18 09:48:06;;;;;;;;;5.00;5.00;;;;;27.79;47.76;100452.66;5092466;27;45620;-77
2023/09/18 09:50:32;;;;;;;;;5.33;5.33;;;;;27.80;47.55;100457.09;5083131;27;45987;-75
2023/09/18 09:52:58;;;;;;;;;5.00;5.00;;;;;27.81;47.61;100456.03;5085143;27;45663;-77
2023/09/18 09:55:33;;;;;;;;;5.00;4.33;;;;;27.85;47.51;100461.91;5078694;27;45689;-77
2023/09/18 09:58:01;;;;;;;;;4.33;4.33;;;;;27.90;47.58;100453.13;5089569;27;45374;-76
2023/09/18 10:00:50;;;;;;;;;5.00;5.00;;;;;27.95;47.88;100453.38;5103367;27;47420;-76
2023/09/18 10:03:18;;;;;;;;;5.00;5.00;;;;;27.99;47.51;100454.59;5088792;27;45341;-77
2023/09/18 10:05:46;;;;;;;;;5.00;5.00;;;;;28.04;48.01;100454.00;5088652;27;45319;-78
2023/09/18 10:08:16;;;;;;;;;4.33;4.33;;;;;28.07;47.29;100465.34;5091577;27;45334;-78
2023/09/18 10:10:53;;;;;;;;;5.00;5.00;;;;;28.12;47.02;100468.28;5091274;27;45575;-77
2023/09/18 10:13:24;;;;;;;;;7.00;5.67;;;;;28.15;47.08;100459.69;5081098;27;45397;-78
2023/09/18 10:15:51;;;;;;;;;8.00;5.33;;;;;28.18;47.26;100460.31;5081498;27;45563;-75
2023/09/18 10:18:52;;;;;;;;;5.00;5.00;;;;;28.23;47.55;100463.25;5073683;27;45505;-75
2023/09/18 10:21:17;;;;;;;;;5.00;5.00;;;;;28.24;47.33;100471.28;5014977;28;45567;-77
2023/09/18 10:23:57;;;;;;;;;6.67;6.67;;;;;28.28;47.14;100464.34;5016153;28;45801;-77
2023/09/18 10:26:30;;;;;;;;;5.33;5.33;;;;;28.32;47.15;100461.22;5020801;28;45785;-78
2023/09/18 10:29:02;;;;;;;;;5.67;4.67;;;;;28.35;47.05;100464.38;5020622;28;46171;-76
2023/09/18 10:31:28;;;;;;;;;7.00;7.00;;;;;28.36;46.53;100467.97;5018095;28;46223;-76
2023/09/18 10:33:56;;;;;;;;;4.67;4.67;;;;;28.35;46.44;100453.47;5025053;28;45560;-76
2023/09/18 10:36:23;;;;;;;;;6.00;6.00;;;;;28.33;46.45;100461.03;5020805;28;45575;-75
2023/09/18 10:38:51;;;;;;;;;5.00;5.00;;;;;28.31;46.69;100460.38;5023237;28;45751;-76
2023/09/18 10:41:20;;;;;;;;;5.00;5.00;;;;;28.32;46.53;100474.88;5022810;28;46186;-76
2023/09/18 10:43:47;;;;;;;;;4.00;4.00;;;;;28.30;46.40;100469.63;5029782;28;46126;-76
2023/09/18 10:46:13;;;;;;;;;6.00;4.00;;;;;28.29;46.62;100462.47;5029586;28;45581;-77
2023/09/18 10:48:41;;;;;;;;;6.00;6.00;;;;;28.28;46.62;100461.63;5021880;28;45981;-77
2023/09/18 10:51:07;;;;;;;;;6.67;5.00;;;;;28.29;46.81;100457.03;5023287;28;46120;-77
2023/09/18 10:53:33;;;;;;;;;5.00;5.00;;;;;28.28;46.98;100458.91;5024523;28;45787;-77
2023/09/18 10:56:00;;;;;;;;;7.00;5.00;;;;;28.27;46.63;100457.22;5023701;28;45830;-76
2023/09/18 10:58:26;;;;;;;;;4.67;4.67;;;;;28.26;46.83;100466.47;5060516;27;45751;-74
2023/09/18 11:00:54;;;;;;;;;6.67;5.00;;;;;28.22;46.42;100456.13;5081464;27;46891;-79
2023/09/18 11:03:22;;;;;;;;;6.00;6.00;;;;;28.22;46.54;100465.16;5087158;27;45397;-75
2023/09/18 11:05:50;;;;;;;;;6.67;6.67;;;;;28.20;46.64;100477.34;5092509;27;46507;-77
2023/09/18 11:08:45;;;;;;;;;6.67;5.00;;;;;28.18;47.02;100477.53;5081882;27;45816;-78
2023/09/18 11:11:14;;;;;;;;;5.00;5.00;;;;;28.17;46.06;100481.31;5025382;28;45696;-78
2023/09/18 11:13:45;;;;;;;;;5.67;5.67;;;;;28.14;46.29;100492.63;5029865;28;45440;-77
2023/09/18 11:16:27;;;;;;;;;6.67;5.00;;;;;28.13;46.58;100482.78;5018390;28;45712;-77
2023/09/18 11:18:53;;;;;;;;;5.33;5.33;;;;;28.11;46.12;100490.31;5028467;28;45457;-77
2023/09/18 11:21:24;;;;;;;;;4.00;4.00;;;;;28.10;46.90;100485.91;5024336;28;45678;-77
2023/09/18 11:23:59;;;;;;;;;6.00;4.67;;;;;28.08;46.15;100479.81;5028594;28;45458;-79
2023/09/18 11:26:29;;;;;;;;;6.67;6.67;;;;;28.08;46.69;100480.66;5024533;28;46227;-74
2023/09/18 11:28:55;;;;;;;;;7.00;5.00;;;;;28.08;46.18;100474.38;5029989;28;45903;-79
2023/09/18 11:31:22;;;;;;;;;5.00;5.00;;;;;28.08;46.69;100486.09;5028614;28;45569;-77
2023/09/18 11:33:47;;;;;;;;;6.00;6.00;;;;;28.08;46.58;100485.28;5028427;28;45434;-78
2023/09/18 11:36:30;;;;;;;;;6.00;5.33;;;;;28.07;46.32;100487.16;5027355;28;45710;-77
2023/09/18 11:39:04;;;;;;;;;5.67;4.67;;;;;28.07;46.64;100476.25;5029559;28;45996;-78
2023/09/18 11:41:32;;;;;;;;;5.67;5.67;;;;;28.06;46.36;100482.75;5029106;28;45612;-78
2023/09/18 11:44:13;;;;;;;;;6.00;6.00;;;;;28.05;46.78;100475.63;5012970;28;45765;-78
2023/09/18 11:46:40;;;;;;;;;6.67;6.67;;;;;28.06;46.36;100471.84;5025832;28;45689;-78
2023/09/18 11:49:07;;;;;;;;;6.00;6.00;;;;;28.06;46.54;100477.28;5086770;27;46549;-77
2023/09/18 11:51:34;;;;;;;;;5.00;5.00;;;;;28.05;46.48;100463.84;5085346;27;45445;-77
2023/09/18 11:54:01;;;;;;;;;5.00;5.00;;;;;28.07;46.64;100468.06;5086204;27;46040;-76
2023/09/18 11:56:26;;;;;;;;;5.00;5.00;;;;;28.07;46.62;100462.59;5093145;27;45469;-78
2023/09/18 11:58:51;;;;;;;;;7.00;6.00;;;;;28.07;46.90;100468.06;5089233;27;45614;-78
2023/09/18 12:01:22;;;;;;;;;4.00;4.00;;;;;28.08;46.91;100453.38;5091332;27;46029;-78
2023/09/18 12:03:53;;;;;;;;;5.00;5.00;;;;;28.09;46.71;100452.34;5093453;27;45542;-76
2023/09/18 12:06:18;;;;;;;;;7.00;5.00;;;;;28.11;46.60;100447.50;5090358;27;45456;-76
2023/09/18 12:08:44;;;;;;;;;9.00;6.67;;;;;28.14;46.32;100452.56;5088220;27;45482;-75
2023/09/18 12:11:09;;;;;;;;;6.33;6.33;;;;;28.14;46.77;100435.34;5084137;27;45404;-75
2023/09/18 12:13:35;;;;;;;;;10.00;10.00;;;;;28.17;46.63;100456.75;5085879;27;45682;-75
2023/09/18 12:16:04;;;;;;;;;21.33;16.33;;;;;28.17;46.01;100442.28;5084178;27;45597;-75
2023/09/18 12:18:30;;;;;;;;;18.00;14.00;;;;;28.15;45.89;100443.31;5093653;27;46687;-77
2023/09/18 12:20:56;;;;;;;;;25.67;19.00;;;;;28.17;45.96;100434.94;5088983;27;46302;-77
2023/09/18 12:23:22;;;;;;;;;21.33;18.00;;;;;28.18;45.94;100443.94;5092492;27;46031;-76
2023/09/18 12:25:55;;;;;;;;;13.33;13.33;;;;;28.17;45.68;100437.66;5087945;27;45535;-76
2023/09/18 12:28:21;;;;;;;;;15.00;10.33;;;;;28.18;45.60;100441.22;5092166;27;45467;-77
2023/09/18 12:30:46;;;;;;;;;10.67;10.33;;;;;28.17;46.07;100437.66;5090227;27;45450;-78
2023/09/18 12:33:13;;;;;;;;;13.67;12.00;;;;;28.18;46.20;100428.44;5085600;27;45378;-79
2023/09/18 12:35:40;;;;;;;;;12.00;10.00;;;;;28.17;46.35;100431.34;5085792;27;45652;-78
2023/09/18 12:38:27;;;;;;;;;12.00;11.00;;;;;28.19;45.98;100441.00;5082719;27;45619;-79
2023/09/18 12:40:55;;;;;;;;;11.00;11.00;;;;;28.20;45.74;100439.13;5085619;27;45833;-78
2023/09/18 12:43:23;;;;;;;;;6.33;6.33;;;;;28.20;45.22;100436.41;5082831;27;45906;-76
2023/09/18 12:45:49;;;;;;;;;8.33;7.00;;;;;28.21;45.51;100436.22;5083749;27;45643;-77
2023/09/18 12:48:15;;;;;;;;;9.67;8.67;;;;;28.22;45.94;100437.03;5081520;27;45506;-76
2023/09/18 12:50:41;;;;;;;;;10.33;7.33;;;;;28.23;46.21;100434.09;5080186;27;46164;-75
2023/09/18 12:53:14;;;;;;;;;9.67;7.33;;;;;28.24;46.20;100426.75;5092486;27;45533;-75
2023/09/18 12:55:40;;;;;;;;;7.00;7.00;;;;;28.24;45.70;100424.03;5084073;27;45461;-75
2023/09/18 12:58:08;;;;;;;;;9.67;7.67;;;;;28.25;46.11;100429.28;5087299;27;45712;-77
2023/09/18 13:00:35;;;;;;;;;8.33;5.67;;;;;28.27;45.59;100432.66;5079409;27;47151;-76
2023/09/18 13:03:01;;;;;;;;;5.33;5.33;;;;;28.28;45.66;100425.31;5081133;27;45497;-79
2023/09/18 13:05:26;;;;;;;;;5.00;5.00;;;;;28.30;45.48;100411.47;5083344;27;45669;-78
2023/09/18 13:07:54;;;;;;;;;5.33;5.00;;;;;28.28;45.51;100414.38;5087989;27;45451;-79
2023/09/18 13:10:21;;;;;;;;;7.33;6.33;;;;;28.31;45.25;100413.16;5090871;27;46431;-79
2023/09/18 13:12:53;;;;;;;;;6.00;5.00;;;;;28.33;45.90;100401.00;5079405;27;45552;-79
2023/09/18 13:15:27;;;;;;;;;4.33;4.33;;;;;28.34;45.13;100410.84;5079434;27;45570;-78
2023/09/18 13:17:54;;;;;;;;;5.00;5.00;;;;;28.34;45.16;100418.19;5095587;27;45480;-79
2023/09/18 13:20:27;;;;;;;;;6.00;5.00;;;;;28.35;45.50;100422.59;5084821;27;46048;-78
2023/09/18 13:22:55;;;;;;;;;5.33;4.00;;;;;28.34;45.42;100412.72;5088443;27;45501;-78
2023/09/18 13:25:28;;;;;;;;;6.67;6.00;;;;;28.34;45.48;100415.44;5083717;27;45504;-77
2023/09/18 13:27:54;;;;;;;;;4.00;4.00;;;;;28.35;45.77;100414.41;5082800;27;45493;-76
2023/09/18 13:30:21;;;;;;;;;6.33;4.33;;;;;28.38;44.70;100427.63;5078273;27;46160;-78
2023/09/18 13:32:48;;;;;;;;;7.33;4.00;;;;;28.39;45.01;100419.25;5084232;27;45430;-78
2023/09/18 13:35:15;;;;;;;;;3.00;3.00;;;;;28.38;45.28;100423.03;5091039;27;45414;-78
2023/09/18 13:37:40;;;;;;;;;5.00;3.00;;;;;28.38;45.05;100423.03;5088907;27;45493;-78
2023/09/18 13:40:08;;;;;;;;;4.67;4.00;;;;;28.40;45.20;100429.09;5079255;27;46351;-80
2023/09/18 13:42:34;;;;;;;;;3.67;3.67;;;;;28.39;44.72;100416.50;5086431;27;45497;-78
2023/09/18 13:45:00;;;;;;;;;4.00;4.00;;;;;28.39;44.99;100412.94;5089425;27;45458;-77
2023/09/18 13:47:27;;;;;;;;;4.33;4.33;;;;;28.40;45.07;100417.34;5078135;27;45491;-77
2023/09/18 13:49:52;;;;;;;;;6.00;4.00;;;;;28.39;44.92;100416.50;5077665;27;45468;-77
2023/09/18 13:52:19;;;;;;;;;4.00;4.00;;;;;28.40;45.22;100409.16;5091768;27;45345;-76
2023/09/18 13:54:50;;;;;;;;;5.00;3.00;;;;;28.41;44.97;100417.13;5090674;27;45280;-74
2023/09/18 13:57:16;;;;;;;;;3.67;3.67;;;;;28.41;44.90;100414.41;5086147;27;45383;-74
2023/09/18 13:59:42;;;;;;;;;3.00;3.00;;;;;28.42;44.37;100428.91;5094613;27;45455;-75
2023/09/18 14:02:08;;;;;;;;;4.33;4.33;;;;;28.43;44.81;100425.13;5089585;27;45438;-74
2023/09/18 14:04:34;;;;;;;;;3.67;3.00;;;;;28.45;44.45;100414.84;5092411;27;45555;-74
2023/09/18 14:06:59;;;;;;;;;5.00;3.67;;;;;28.46;44.86;100430.16;5095781;27;45895;-75
2023/09/18 14:09:25;;;;;;;;;3.67;3.67;;;;;28.46;43.99;100424.72;5090787;27;45762;-78
2023/09/18 14:11:50;;;;;;;;;4.00;4.00;;;;;28.45;43.92;100422.19;5085211;27;45490;-77
2023/09/18 14:14:15;;;;;;;;;4.00;2.00;;;;;28.42;43.72;100415.25;5095866;27;45455;-77
2023/09/18 14:16:41;;;;;;;;;2.33;2.33;;;;;28.41;44.41;100417.13;5086540;27;45636;-77
2023/09/18 14:19:06;;;;;;;;;3.00;3.00;;;;;28.43;44.21;100421.53;5082405;27;47016;-72
2023/09/18 14:21:32;;;;;;;;;3.00;3.00;;;;;28.43;44.51;100418.81;5094547;27;45359;-73
2023/09/18 14:23:58;;;;;;;;;4.00;4.00;;;;;28.39;44.44;100413.78;5086694;27;45519;-73
2023/09/18 14:26:23;;;;;;;;;3.33;2.00;;;;;28.41;43.90;100408.94;5080937;27;45424;-73
2023/09/18 14:28:48;;;;;;;;;2.00;2.00;;;;;28.40;44.10;100414.59;5085002;27;47244;-77
2023/09/18 14:31:13;;;;;;;;;2.00;2.00;;;;;28.40;44.02;100415.47;5087376;27;45531;-76
2023/09/18 14:33:40;;;;;;;;;2.00;2.00;;;;;28.43;44.63;100405.16;5085988;27;45688;-77
2023/09/18 14:36:06;;;;;;;;;2.00;2.00;;;;;28.43;43.51;100414.19;5084101;27;45707;-78
2023/09/18 14:38:32;;;;;;;;;4.00;3.00;;;;;28.48;44.79;100417.13;5091082;27;45727;-79
2023/09/18 14:41:02;;;;;;;;;3.67;2.00;;;;;28.50;44.58;100425.13;5094990;27;45411;-78
2023/09/18 14:43:27;;;;;;;;;3.00;3.00;;;;;28.51;43.70;100419.47;5090871;27;45393;-78
2023/09/18 14:45:55;;;;;;;;;1.00;1.00;;;;;28.54;43.85;100424.47;5089653;27;45891;-80
2023/09/18 14:48:21;;;;;;;;;3.00;3.00;;;;;28.54;43.94;100423.66;5085775;27;45951;-80
2023/09/18 14:50:53;;;;;;;;;1.67;1.67;;;;;28.53;43.28;100425.53;5092160;27;45483;-79
2023/09/18 14:53:18;;;;;;;;;2.00;2.00;;;;;28.52;43.27;100420.28;5091751;27;45437;-80
2023/09/18 14:55:43;;;;;;;;;3.33;3.33;;;;;28.51;43.01;100416.72;5094210;27;45505;-78
2023/09/18 14:58:09;;;;;;;;;2.00;2.00;;;;;28.48;42.83;100413.59;5089624;27;57112;-79
2023/09/18 15:00:34;;;;;;;;;2.00;2.00;;;;;28.48;43.34;100403.50;5092615;27;45472;-79
2023/09/18 15:03:00;;;;;;;;;3.33;3.33;;;;;28.48;43.62;100405.41;5081344;27;45528;-79
2023/09/18 15:05:25;;;;;;;;;1.00;1.00;;;;;28.49;43.09;100393.41;5086784;27;45563;-77
2023/09/18 15:07:51;;;;;;;;;2.00;2.00;;;;;28.47;43.60;100404.53;5087321;27;45958;-77
2023/09/18 15:10:17;;;;;;;;;3.00;1.00;;;;;28.46;43.90;100399.28;5079270;27;45719;-77
2023/09/18 15:12:43;;;;;;;;;1.33;1.33;;;;;28.45;42.76;100394.88;5090329;27;45596;-78
2023/09/18 15:15:09;;;;;;;;;1.00;1.00;;;;;28.45;43.51;100408.53;5082908;27;45907;-78
2023/09/18 15:17:36;;;;;;;;;1.00;1.00;;;;;28.47;43.07;100400.97;5073199;27;46461;-78
2023/09/18 15:20:03;;;;;;;;;1.67;1.67;;;;;28.47;42.97;100399.09;5090562;27;47359;-77
2023/09/18 15:22:28;;;;;;;;;3.67;2.00;;;;;28.48;42.65;100408.94;5092752;27;45500;-78
2023/09/18 15:24:54;;;;;;;;;3.00;3.00;;;;;28.48;43.17;100399.94;5093503;27;45804;-75
2023/09/18 15:27:19;;;;;;;;;2.00;2.00;;;;;28.46;42.94;100402.88;5090175;27;46376;-77
2023/09/18 15:29:45;;;;;;;;;2.00;2.00;;;;;28.44;43.27;100407.69;5092775;27;45495;-77
2023/09/18 15:32:10;;;;;;;;;1.67;1.67;;;;;28.44;43.58;100407.69;5083831;27;45669;-75
2023/09/18 15:34:35;;;;;;;;;2.00;2.00;;;;;28.44;43.60;100413.16;5089177;27;45576;-75
2023/09/18 15:37:03;;;;;;;;;2.00;2.00;;;;;28.41;43.18;100403.47;5079972;27;50087;-75
2023/09/18 15:39:30;;;;;;;;;2.00;2.00;;;;;28.42;43.30;100415.25;5086138;27;45508;-75
2023/09/18 15:41:55;;;;;;;;;1.00;1.00;;;;;28.43;43.05;100411.47;5089326;27;45450;-75
2023/09/18 15:44:21;;;;;;;;;2.00;2.00;;;;;28.42;43.13;100409.78;5084229;27;45776;-79
